createdAt,value
2022-12-25T00:00:25.030Z,10.04
2022-12-25T00:05:24.990Z,9.99
2022-12-25T00:10:24.821Z,9.94
2022-12-25T00:15:24.777Z,9.89
2022-12-25T00:20:24.660Z,9.85
2022-12-25T00:25:24.634Z,9.81
2022-12-25T00:30:24.569Z,9.79
2022-12-25T00:35:24.514Z,9.77
2022-12-25T00:40:24.644Z,9.76
2022-12-25T00:45:25.854Z,9.75
2022-12-25T00:50:24.262Z,9.73
2022-12-25T00:55:24.997Z,9.73
2022-12-25T01:00:24.145Z,9.74
2022-12-25T01:05:44.497Z,9.75
2022-12-25T01:10:36.921Z,9.76
2022-12-25T01:15:36.814Z,9.78
2022-12-25T01:20:37.444Z,9.80
2022-12-25T01:25:36.682Z,9.81
2022-12-25T01:30:36.669Z,9.83
2022-12-25T01:35:36.559Z,9.84
2022-12-25T01:40:37.192Z,9.85
2022-12-25T01:45:36.491Z,9.86
2022-12-25T01:50:36.360Z,9.87
2022-12-25T01:55:36.322Z,9.88
2022-12-25T02:00:36.354Z,9.89
2022-12-25T02:05:36.175Z,9.91
2022-12-25T02:10:36.081Z,9.92
2022-12-25T02:15:36.088Z,9.93
2022-12-25T02:20:36.120Z,9.94
2022-12-25T02:25:35.916Z,9.95
2022-12-25T02:30:36.393Z,9.96
2022-12-25T02:35:36.220Z,9.97
2022-12-25T02:40:36.919Z,9.98
2022-12-25T02:45:35.914Z,9.99
2022-12-25T02:50:35.563Z,10.00
2022-12-25T02:55:35.500Z,10.01
2022-12-25T03:00:36.153Z,10.01
2022-12-25T03:05:36.038Z,10.01
2022-12-25T03:10:35.822Z,10.01
2022-12-25T03:15:35.895Z,10.01
2022-12-25T03:20:35.283Z,10.01
2022-12-25T03:25:35.765Z,10.01
2022-12-25T03:30:35.051Z,10.02
2022-12-25T03:35:34.979Z,10.02
2022-12-25T03:40:34.879Z,10.03
2022-12-25T03:45:34.805Z,10.04
2022-12-25T03:50:34.748Z,10.06
2022-12-25T03:55:35.379Z,10.07
2022-12-25T04:00:35.305Z,10.09
2022-12-25T04:05:35.203Z,10.10
2022-12-25T04:10:35.024Z,10.10
2022-12-25T04:15:35.140Z,10.09
2022-12-25T04:20:34.347Z,10.06
2022-12-25T04:25:34.947Z,10.02
2022-12-25T04:30:34.905Z,9.97
2022-12-25T04:35:34.161Z,9.94
2022-12-25T04:40:34.774Z,9.92
2022-12-25T04:45:34.031Z,9.91
2022-12-25T04:50:34.068Z,9.91
2022-12-25T04:55:33.904Z,9.90
2022-12-25T05:00:34.499Z,9.89
2022-12-25T05:05:33.964Z,9.88
2022-12-25T05:10:35.129Z,9.86
2022-12-25T05:15:35.095Z,9.85
2022-12-25T05:20:39.746Z,9.83
2022-12-25T05:25:34.510Z,9.81
2022-12-25T05:30:33.509Z,9.81
2022-12-25T05:35:34.030Z,9.81
2022-12-25T05:40:33.276Z,9.82
2022-12-25T05:45:33.201Z,9.84
2022-12-25T05:50:33.637Z,9.86
2022-12-25T05:55:33.790Z,9.88
2022-12-25T06:00:33.744Z,9.90
2022-12-25T06:05:33.607Z,9.92
2022-12-25T06:10:33.359Z,9.94
2022-12-25T06:15:32.827Z,9.95
2022-12-25T06:20:32.820Z,9.97
2022-12-25T06:25:32.684Z,9.98
2022-12-25T06:30:32.697Z,9.99
2022-12-25T06:35:33.217Z,10.00
2022-12-25T06:40:32.461Z,10.02
2022-12-25T06:45:33.149Z,10.03
2022-12-25T06:50:32.341Z,10.03
2022-12-25T06:55:32.970Z,10.04
2022-12-25T07:00:48.114Z,10.04
2022-12-25T07:05:40.577Z,10.04
2022-12-25T07:10:40.405Z,10.04
2022-12-25T07:15:40.875Z,10.05
2022-12-25T07:20:40.269Z,10.07
2022-12-25T07:25:40.197Z,10.09
2022-12-25T07:30:40.846Z,10.11
2022-12-25T07:35:40.067Z,10.13
2022-12-25T07:40:39.999Z,10.15
2022-12-25T07:45:39.938Z,10.16
2022-12-25T07:50:39.862Z,10.18
2022-12-25T07:55:39.775Z,10.19
2022-12-25T08:00:39.807Z,10.20
2022-12-25T08:05:39.703Z,10.22
2022-12-25T08:10:39.603Z,10.23
2022-12-25T08:15:39.507Z,10.25
2022-12-25T08:20:39.452Z,10.27
2022-12-25T08:25:39.380Z,10.30
2022-12-25T08:30:39.380Z,10.35
2022-12-25T08:35:39.251Z,10.39
2022-12-25T08:40:39.183Z,10.42
2022-12-25T08:45:39.108Z,10.44
2022-12-25T08:50:39.062Z,10.46
2022-12-25T08:55:38.993Z,10.48
2022-12-25T09:00:38.931Z,10.49
2022-12-25T09:05:38.848Z,10.49
2022-12-25T09:10:39.014Z,10.50
2022-12-25T09:15:38.839Z,10.51
2022-12-25T09:20:38.652Z,10.52
2022-12-25T09:25:38.622Z,10.55
2022-12-25T09:30:38.565Z,10.63
2022-12-25T09:35:38.441Z,10.74
2022-12-25T09:40:38.385Z,10.82
2022-12-25T09:45:38.308Z,10.88
2022-12-25T09:50:38.227Z,10.94
2022-12-25T09:55:38.179Z,10.98
2022-12-25T10:00:38.161Z,10.98
2022-12-25T10:05:38.016Z,10.96
2022-12-25T10:10:37.978Z,10.94
2022-12-25T10:15:45.070Z,10.95
2022-12-25T10:20:38.854Z,11.02
2022-12-25T10:25:37.759Z,11.11
2022-12-25T10:30:37.703Z,11.23
2022-12-25T10:35:37.628Z,11.33
2022-12-25T10:40:37.570Z,11.41
2022-12-25T10:45:37.500Z,11.53
2022-12-25T10:50:37.448Z,11.73
2022-12-25T10:55:37.364Z,11.94
2022-12-25T11:00:37.334Z,12.03
2022-12-25T11:05:37.246Z,11.99
2022-12-25T11:10:37.174Z,11.90
2022-12-25T11:15:37.117Z,11.84
2022-12-25T11:20:38.419Z,11.80
2022-12-25T11:25:36.956Z,11.81
2022-12-25T11:30:36.926Z,11.84
2022-12-25T11:35:36.861Z,11.90
2022-12-25T11:40:36.771Z,11.97
2022-12-25T11:45:36.713Z,12.03
2022-12-25T11:50:36.639Z,12.14
2022-12-25T11:55:36.613Z,12.33
2022-12-25T12:00:36.519Z,12.61
2022-12-25T12:05:36.407Z,12.88
2022-12-25T12:10:36.345Z,13.06
2022-12-25T12:15:36.282Z,13.16
2022-12-25T12:20:36.241Z,13.20
2022-12-25T12:25:36.153Z,13.21
2022-12-25T12:30:36.087Z,13.24
2022-12-25T12:35:36.224Z,13.28
2022-12-25T12:40:35.981Z,13.32
2022-12-25T12:45:35.988Z,13.34
2022-12-25T12:50:35.834Z,13.37
2022-12-25T12:55:35.725Z,13.37
2022-12-25T13:00:36.644Z,13.35
2022-12-25T13:05:35.793Z,13.33
2022-12-25T13:10:35.555Z,13.31
2022-12-25T13:15:35.468Z,13.30
2022-12-25T13:20:35.416Z,13.29
2022-12-25T13:25:35.323Z,13.27
2022-12-25T13:30:35.281Z,13.25
2022-12-25T13:35:35.217Z,13.27
2022-12-25T13:40:35.151Z,13.33
2022-12-25T13:45:35.146Z,13.37
2022-12-25T13:50:35.003Z,13.37
2022-12-25T13:55:34.926Z,13.33
2022-12-25T14:00:34.869Z,13.25
2022-12-25T14:05:42.053Z,13.15
2022-12-25T14:10:36.367Z,13.04
2022-12-25T14:15:34.652Z,12.91
2022-12-25T14:20:34.598Z,12.79
2022-12-25T14:25:34.517Z,12.68
2022-12-25T14:30:34.624Z,12.61
2022-12-25T14:35:34.379Z,12.56
2022-12-25T14:40:34.323Z,12.50
2022-12-25T14:45:34.951Z,12.44
2022-12-25T14:50:34.361Z,12.37
2022-12-25T14:55:34.114Z,12.30
2022-12-25T15:00:34.061Z,12.24
2022-12-25T15:05:33.993Z,12.19
2022-12-25T15:15:35.006Z,12.08
2022-12-25T15:20:33.770Z,12.03
2022-12-25T15:25:33.711Z,11.98
2022-12-25T15:30:33.668Z,11.93
2022-12-25T15:35:33.568Z,11.88
2022-12-25T15:40:33.529Z,11.83
2022-12-25T15:45:33.439Z,11.79
2022-12-25T15:50:33.384Z,11.75
2022-12-25T15:55:33.315Z,11.72
2022-12-25T16:00:33.247Z,11.69
2022-12-25T16:05:33.168Z,11.67
2022-12-25T16:10:38.499Z,11.64
2022-12-25T16:15:34.095Z,11.63
2022-12-25T16:20:32.991Z,11.62
2022-12-25T16:25:33.061Z,11.61
2022-12-25T16:30:32.855Z,11.61
2022-12-25T16:35:32.764Z,11.62
2022-12-25T16:40:32.696Z,11.63
2022-12-25T16:45:32.637Z,11.65
2022-12-25T16:50:32.585Z,11.67
2022-12-25T16:55:32.505Z,11.69
2022-12-25T17:00:32.470Z,11.71
2022-12-25T17:05:32.371Z,11.72
2022-12-25T17:10:32.310Z,11.73
2022-12-25T17:15:32.227Z,11.73
2022-12-25T17:20:32.252Z,11.73
2022-12-25T17:25:32.112Z,11.73
2022-12-25T17:30:32.046Z,11.71
2022-12-25T17:35:31.986Z,11.69
2022-12-25T17:40:31.907Z,11.67
2022-12-25T17:45:31.848Z,11.65
2022-12-25T17:50:34.650Z,11.63
2022-12-25T17:55:32.711Z,11.61
2022-12-25T18:00:31.643Z,11.60
2022-12-25T18:05:31.562Z,11.59
2022-12-25T18:10:31.501Z,11.57
2022-12-25T18:15:31.453Z,11.57
2022-12-25T18:20:37.692Z,11.56
2022-12-25T18:25:32.347Z,11.55
2022-12-25T18:30:31.241Z,11.55
2022-12-25T18:35:32.092Z,11.53
2022-12-25T18:40:31.116Z,11.52
2022-12-25T18:45:31.123Z,11.50
2022-12-25T18:50:30.975Z,11.49
2022-12-25T18:55:30.934Z,11.47
2022-12-25T19:00:30.916Z,11.46
2022-12-25T19:05:30.758Z,11.44
2022-12-25T19:10:30.688Z,11.43
2022-12-25T19:15:30.624Z,11.42
2022-12-25T19:20:30.565Z,11.41
2022-12-25T19:25:30.490Z,11.42
2022-12-25T19:30:30.461Z,11.43
2022-12-25T19:35:30.357Z,11.45
2022-12-25T19:40:30.284Z,11.48
2022-12-25T19:45:30.223Z,11.52
2022-12-25T19:50:30.152Z,11.57
2022-12-25T19:55:30.075Z,11.62
2022-12-25T20:00:30.026Z,11.66
2022-12-25T20:05:29.952Z,11.70
2022-12-25T20:10:29.898Z,11.74
2022-12-25T20:15:29.820Z,11.76
2022-12-25T20:20:29.764Z,11.78
2022-12-25T20:25:29.697Z,11.80
2022-12-25T20:30:29.631Z,11.83
2022-12-25T20:35:29.570Z,11.86
2022-12-25T20:40:29.497Z,11.88
2022-12-25T20:45:29.487Z,11.89
2022-12-25T20:50:29.357Z,11.90
2022-12-25T20:55:29.280Z,11.91
2022-12-25T21:00:29.227Z,11.92
2022-12-25T21:05:29.136Z,11.94
2022-12-25T21:10:29.096Z,11.95
2022-12-25T21:15:29.240Z,11.96
2022-12-25T21:20:28.970Z,11.98
2022-12-25T21:25:28.855Z,12.00
2022-12-25T21:30:28.871Z,12.03
2022-12-25T21:35:28.763Z,12.04
2022-12-25T21:40:28.689Z,12.06
2022-12-25T21:45:28.611Z,12.08
2022-12-25T21:50:28.548Z,12.09
2022-12-25T21:55:28.463Z,12.11
2022-12-25T22:00:58.388Z,12.13
2022-12-25T22:05:33.448Z,12.17
2022-12-25T22:10:31.450Z,12.21
2022-12-25T22:15:32.245Z,12.23
2022-12-25T22:20:40.335Z,12.25
2022-12-25T22:25:34.977Z,12.26
2022-12-25T22:30:37.564Z,12.27
2022-12-25T22:35:38.449Z,12.28
2022-12-25T22:40:38.404Z,12.29
2022-12-25T22:45:52.683Z,12.29
2022-12-25T22:50:45.835Z,12.29
2022-12-25T22:55:31.606Z,12.28
2022-12-25T23:00:27.891Z,12.27
2022-12-25T23:05:27.512Z,12.25
2022-12-25T23:10:27.460Z,12.22
2022-12-25T23:15:27.377Z,12.20
2022-12-25T23:20:27.354Z,12.18
2022-12-25T23:25:27.245Z,12.16
2022-12-25T23:30:27.246Z,12.14
2022-12-25T23:35:27.131Z,12.12
2022-12-25T23:40:27.077Z,12.11
2022-12-25T23:45:27.025Z,12.09
2022-12-25T23:50:26.935Z,12.08
2022-12-25T23:55:26.839Z,12.07
